sensor_id;sensor_type;location;lat;lon;timestamp;P1;durP1;ratioP1;P2;durP2;ratioP2
30149;SDS011;16962;48.646;9.026;2023-02-27T00:01:39;4.22;;;2.30;;
30149;SDS011;16962;48.646;9.026;2023-02-27T00:04:32;5.65;;;2.72;;
30149;SDS011;16962;48.646;9.026;2023-02-27T00:07:19;2.85;;;2.40;;
30149;SDS011;16962;48.646;9.026;2023-02-27T00:10:13;4.20;;;2.28;;
30149;SDS011;16962;48.646;9.026;2023-02-27T00:13:03;3.08;;;2.33;;
30149;SDS011;16962;48.646;9.026;2023-02-27T00:16:00;3.92;;;2.28;;
30149;SDS011;16962;48.646;9.026;2023-02-27T00:18:51;3.80;;;2.50;;
30149;SDS011;16962;48.646;9.026;2023-02-27T00:21:39;4.90;;;2.40;;
30149;SDS011;16962;48.646;9.026;2023-02-27T00:24:27;3.92;;;2.30;;
30149;SDS011;16962;48.646;9.026;2023-02-27T00:27:14;4.22;;;2.92;;
30149;SDS011;16962;48.646;9.026;2023-02-27T00:30:05;4.90;;;2.80;;
30149;SDS011;16962;48.646;9.026;2023-02-27T00:33:07;5.18;;;2.67;;
30149;SDS011;16962;48.646;9.026;2023-02-27T00:35:58;3.50;;;2.72;;
30149;SDS011;16962;48.646;9.026;2023-02-27T00:38:50;4.70;;;2.45;;
30149;SDS011;16962;48.646;9.026;2023-02-27T00:41:37;5.22;;;2.40;;
30149;SDS011;16962;48.646;9.026;2023-02-27T00:44:28;3.63;;;2.30;;
30149;SDS011;16962;48.646;9.026;2023-02-27T00:47:16;4.65;;;2.47;;
30149;SDS011;16962;48.646;9.026;2023-02-27T00:50:04;4.38;;;2.28;;
30149;SDS011;16962;48.646;9.026;2023-02-27T00:52:52;4.70;;;2.80;;
30149;SDS011;16962;48.646;9.026;2023-02-27T00:55:39;4.45;;;2.28;;
30149;SDS011;16962;48.646;9.026;2023-02-27T00:58:26;6.05;;;2.63;;
30149;SDS011;16962;48.646;9.026;2023-02-27T01:01:13;9.73;;;2.63;;
30149;SDS011;16962;48.646;9.026;2023-02-27T01:04:03;2.70;;;2.50;;
30149;SDS011;16962;48.646;9.026;2023-02-27T01:06:52;5.30;;;3.40;;
30149;SDS011;16962;48.646;9.026;2023-02-27T01:09:40;8.52;;;2.63;;
30149;SDS011;16962;48.646;9.026;2023-02-27T01:12:27;3.70;;;2.78;;
30149;SDS011;16962;48.646;9.026;2023-02-27T01:15:16;4.00;;;2.65;;
30149;SDS011;16962;48.646;9.026;2023-02-27T01:18:03;2.38;;;2.10;;
30149;SDS011;16962;48.646;9.026;2023-02-27T01:20:51;4.53;;;2.53;;
30149;SDS011;16962;48.646;9.026;2023-02-27T01:23:39;11.25;;;2.70;;
30149;SDS011;16962;48.646;9.026;2023-02-27T01:26:30;5.28;;;3.08;;
30149;SDS011;16962;48.646;9.026;2023-02-27T01:29:17;4.00;;;2.95;;
30149;SDS011;16962;48.646;9.026;2023-02-27T01:32:04;4.10;;;2.80;;
30149;SDS011;16962;48.646;9.026;2023-02-27T01:34:52;6.30;;;2.95;;
30149;SDS011;16962;48.646;9.026;2023-02-27T01:37:39;7.43;;;2.58;;
30149;SDS011;16962;48.646;9.026;2023-02-27T01:40:27;3.45;;;2.70;;
30149;SDS011;16962;48.646;9.026;2023-02-27T01:43:19;4.03;;;2.83;;
30149;SDS011;16962;48.646;9.026;2023-02-27T01:46:09;5.80;;;2.90;;
30149;SDS011;16962;48.646;9.026;2023-02-27T01:48:58;4.95;;;2.85;;
30149;SDS011;16962;48.646;9.026;2023-02-27T01:51:55;5.47;;;2.85;;
30149;SDS011;16962;48.646;9.026;2023-02-27T01:54:48;6.10;;;3.00;;
30149;SDS011;16962;48.646;9.026;2023-02-27T01:57:36;2.95;;;2.50;;
30149;SDS011;16962;48.646;9.026;2023-02-27T02:00:23;6.75;;;3.10;;
30149;SDS011;16962;48.646;9.026;2023-02-27T02:03:25;3.75;;;2.83;;
30149;SDS011;16962;48.646;9.026;2023-02-27T02:06:17;4.15;;;2.75;;
30149;SDS011;16962;48.646;9.026;2023-02-27T02:09:05;4.47;;;3.05;;
30149;SDS011;16962;48.646;9.026;2023-02-27T02:11:56;3.95;;;3.00;;
30149;SDS011;16962;48.646;9.026;2023-02-27T02:14:45;5.15;;;3.00;;
30149;SDS011;16962;48.646;9.026;2023-02-27T02:17:44;5.00;;;3.22;;
30149;SDS011;16962;48.646;9.026;2023-02-27T02:36:35;6.35;;;3.30;;
30149;SDS011;16962;48.646;9.026;2023-02-27T02:46:22;8.40;;;4.05;;
30149;SDS011;16962;48.646;9.026;2023-02-27T02:49:34;6.47;;;3.60;;
30149;SDS011;16962;48.646;9.026;2023-02-27T02:52:46;7.70;;;3.53;;
30149;SDS011;16962;48.646;9.026;2023-02-27T02:58:56;6.93;;;3.80;;
30149;SDS011;16962;48.646;9.026;2023-02-27T03:02:16;4.43;;;3.50;;
30149;SDS011;16962;48.646;9.026;2023-02-27T03:05:12;8.82;;;4.18;;
30149;SDS011;16962;48.646;9.026;2023-02-27T03:08:15;6.38;;;3.72;;
30149;SDS011;16962;48.646;9.026;2023-02-27T03:11:05;6.90;;;3.90;;
30149;SDS011;16962;48.646;9.026;2023-02-27T03:13:58;6.15;;;4.18;;
30149;SDS011;16962;48.646;9.026;2023-02-27T03:16:52;8.77;;;3.90;;
30149;SDS011;16962;48.646;9.026;2023-02-27T03:19:49;5.63;;;4.10;;
30149;SDS011;16962;48.646;9.026;2023-02-27T03:22:42;6.13;;;3.92;;
30149;SDS011;16962;48.646;9.026;2023-02-27T03:25:32;6.10;;;4.40;;
30149;SDS011;16962;48.646;9.026;2023-02-27T03:28:24;7.60;;;4.60;;
30149;SDS011;16962;48.646;9.026;2023-02-27T03:31:18;8.13;;;4.95;;
30149;SDS011;16962;48.646;9.026;2023-02-27T03:34:25;8.75;;;4.70;;
30149;SDS011;16962;48.646;9.026;2023-02-27T03:40:18;11.80;;;4.38;;
30149;SDS011;16962;48.646;9.026;2023-02-27T03:43:31;9.50;;;5.45;;
30149;SDS011;16962;48.646;9.026;2023-02-27T03:46:31;13.15;;;4.97;;
30149;SDS011;16962;48.646;9.026;2023-02-27T03:49:20;7.82;;;5.18;;
30149;SDS011;16962;48.646;9.026;2023-02-27T03:52:10;8.85;;;5.20;;
30149;SDS011;16962;48.646;9.026;2023-02-27T03:57:54;4.97;;;4.30;;
30149;SDS011;16962;48.646;9.026;2023-02-27T04:00:41;6.43;;;4.45;;
30149;SDS011;16962;48.646;9.026;2023-02-27T04:03:31;8.90;;;4.72;;
30149;SDS011;16962;48.646;9.026;2023-02-27T04:06:23;8.00;;;4.78;;
30149;SDS011;16962;48.646;9.026;2023-02-27T04:22:50;9.30;;;4.68;;
30149;SDS011;16962;48.646;9.026;2023-02-27T04:29:16;8.30;;;5.20;;
30149;SDS011;16962;48.646;9.026;2023-02-27T04:35:34;7.90;;;5.03;;
30149;SDS011;16962;48.646;9.026;2023-02-27T04:41:42;10.30;;;5.68;;
30149;SDS011;16962;48.646;9.026;2023-02-27T04:44:41;7.32;;;5.00;;
30149;SDS011;16962;48.646;9.026;2023-02-27T04:47:33;10.70;;;5.50;;
30149;SDS011;16962;48.646;9.026;2023-02-27T04:50:25;7.55;;;5.30;;
30149;SDS011;16962;48.646;9.026;2023-02-27T04:56:24;9.98;;;5.72;;
30149;SDS011;16962;48.646;9.026;2023-02-27T04:59:19;5.97;;;5.03;;
30149;SDS011;16962;48.646;9.026;2023-02-27T05:05:45;10.43;;;5.63;;
30149;SDS011;16962;48.646;9.026;2023-02-27T05:11:43;7.63;;;4.60;;
30149;SDS011;16962;48.646;9.026;2023-02-27T05:15:23;10.77;;;5.70;;
30149;SDS011;16962;48.646;9.026;2023-02-27T05:17:58;7.88;;;5.65;;
30149;SDS011;16962;48.646;9.026;2023-02-27T05:21:00;7.32;;;5.25;;
30149;SDS011;16962;48.646;9.026;2023-02-27T05:27:32;10.80;;;5.18;;
30149;SDS011;16962;48.646;9.026;2023-02-27T05:30:28;9.77;;;5.67;;
30149;SDS011;16962;48.646;9.026;2023-02-27T05:33:44;7.68;;;5.18;;
30149;SDS011;16962;48.646;9.026;2023-02-27T05:36:38;10.23;;;6.15;;
30149;SDS011;16962;48.646;9.026;2023-02-27T05:39:34;11.13;;;6.05;;
30149;SDS011;16962;48.646;9.026;2023-02-27T05:42:27;14.35;;;6.00;;
30149;SDS011;16962;48.646;9.026;2023-02-27T05:45:22;9.73;;;5.72;;
30149;SDS011;16962;48.646;9.026;2023-02-27T05:48:16;15.38;;;6.30;;
30149;SDS011;16962;48.646;9.026;2023-02-27T05:51:08;8.57;;;5.22;;
30149;SDS011;16962;48.646;9.026;2023-02-27T05:54:00;9.80;;;5.57;;
30149;SDS011;16962;48.646;9.026;2023-02-27T05:56:53;13.90;;;6.03;;
30149;SDS011;16962;48.646;9.026;2023-02-27T05:59:54;8.80;;;4.85;;
30149;SDS011;16962;48.646;9.026;2023-02-27T06:02:53;11.05;;;5.63;;
30149;SDS011;16962;48.646;9.026;2023-02-27T06:05:41;12.35;;;5.95;;
30149;SDS011;16962;48.646;9.026;2023-02-27T06:08:31;9.30;;;6.45;;
30149;SDS011;16962;48.646;9.026;2023-02-27T06:11:22;8.65;;;5.45;;
30149;SDS011;16962;48.646;9.026;2023-02-27T06:14:10;10.85;;;5.80;;
30149;SDS011;16962;48.646;9.026;2023-02-27T06:17:16;6.95;;;5.85;;
30149;SDS011;16962;48.646;9.026;2023-02-27T06:20:04;8.00;;;5.28;;
30149;SDS011;16962;48.646;9.026;2023-02-27T06:22:55;11.40;;;6.45;;
30149;SDS011;16962;48.646;9.026;2023-02-27T06:25:48;12.68;;;6.10;;
30149;SDS011;16962;48.646;9.026;2023-02-27T06:28:36;11.75;;;6.18;;
30149;SDS011;16962;48.646;9.026;2023-02-27T06:35:32;14.88;;;6.45;;
30149;SDS011;16962;48.646;9.026;2023-02-27T06:38:24;9.88;;;6.03;;
30149;SDS011;16962;48.646;9.026;2023-02-27T06:41:11;8.23;;;5.45;;
30149;SDS011;16962;48.646;9.026;2023-02-27T06:44:00;9.40;;;5.75;;
30149;SDS011;16962;48.646;9.026;2023-02-27T06:46:50;11.68;;;6.50;;
30149;SDS011;16962;48.646;9.026;2023-02-27T06:49:51;10.43;;;5.80;;
30149;SDS011;16962;48.646;9.026;2023-02-27T07:18:09;12.35;;;5.55;;
30149;SDS011;16962;48.646;9.026;2023-02-27T07:25:35;10.32;;;5.13;;
30149;SDS011;16962;48.646;9.026;2023-02-27T07:32:11;5.18;;;4.38;;
30149;SDS011;16962;48.646;9.026;2023-02-27T07:47:01;9.98;;;4.28;;
30149;SDS011;16962;48.646;9.026;2023-02-27T07:50:35;7.57;;;4.05;;
30149;SDS011;16962;48.646;9.026;2023-02-27T07:53:44;8.55;;;3.90;;
30149;SDS011;16962;48.646;9.026;2023-02-27T07:57:04;6.15;;;3.88;;
30149;SDS011;16962;48.646;9.026;2023-02-27T08:46:47;4.50;;;3.28;;
30149;SDS011;16962;48.646;9.026;2023-02-27T08:50:42;4.45;;;3.10;;
30149;SDS011;16962;48.646;9.026;2023-02-27T08:54:42;10.05;;;3.63;;
30149;SDS011;16962;48.646;9.026;2023-02-27T09:09:57;4.15;;;2.85;;
30149;SDS011;16962;48.646;9.026;2023-02-27T09:12:48;5.50;;;3.60;;
30149;SDS011;16962;48.646;9.026;2023-02-27T09:15:37;8.40;;;3.30;;
30149;SDS011;16962;48.646;9.026;2023-02-27T09:18:38;4.55;;;3.30;;
30149;SDS011;16962;48.646;9.026;2023-02-27T09:22:05;7.00;;;3.63;;
30149;SDS011;16962;48.646;9.026;2023-02-27T09:24:55;8.07;;;3.33;;
30149;SDS011;16962;48.646;9.026;2023-02-27T09:33:15;6.38;;;3.70;;
30149;SDS011;16962;48.646;9.026;2023-02-27T09:36:37;7.55;;;3.10;;
30149;SDS011;16962;48.646;9.026;2023-02-27T09:39:46;5.93;;;2.80;;
30149;SDS011;16962;48.646;9.026;2023-02-27T09:43:07;6.60;;;3.20;;
30149;SDS011;16962;48.646;9.026;2023-02-27T09:46:08;6.15;;;3.05;;
30149;SDS011;16962;48.646;9.026;2023-02-27T09:53:14;4.05;;;2.58;;
30149;SDS011;16962;48.646;9.026;2023-02-27T10:00:05;4.70;;;2.63;;
30149;SDS011;16962;48.646;9.026;2023-02-27T10:16:40;4.15;;;2.78;;
30149;SDS011;16962;48.646;9.026;2023-02-27T10:19:37;4.65;;;2.47;;
30149;SDS011;16962;48.646;9.026;2023-02-27T10:25:10;3.45;;;2.58;;
30149;SDS011;16962;48.646;9.026;2023-02-27T10:28:25;3.28;;;2.50;;
30149;SDS011;16962;48.646;9.026;2023-02-27T10:31:25;3.72;;;2.33;;
30149;SDS011;16962;48.646;9.026;2023-02-27T10:34:22;5.03;;;2.75;;
30149;SDS011;16962;48.646;9.026;2023-02-27T10:37:14;5.88;;;2.95;;
30149;SDS011;16962;48.646;9.026;2023-02-27T10:40:16;3.65;;;2.42;;
30149;SDS011;16962;48.646;9.026;2023-02-27T10:43:06;4.25;;;2.20;;
30149;SDS011;16962;48.646;9.026;2023-02-27T10:49:52;5.20;;;2.50;;
30149;SDS011;16962;48.646;9.026;2023-02-27T10:53:05;3.42;;;2.40;;
30149;SDS011;16962;48.646;9.026;2023-02-27T10:56:12;2.45;;;2.25;;
30149;SDS011;16962;48.646;9.026;2023-02-27T10:59:15;3.13;;;2.40;;
30149;SDS011;16962;48.646;9.026;2023-02-27T11:03:19;4.90;;;2.90;;
30149;SDS011;16962;48.646;9.026;2023-02-27T11:10:23;5.28;;;3.08;;
30149;SDS011;16962;48.646;9.026;2023-02-27T11:17:32;4.57;;;2.50;;
30149;SDS011;16962;48.646;9.026;2023-02-27T11:24:33;5.45;;;2.88;;
30149;SDS011;16962;48.646;9.026;2023-02-27T11:27:28;4.63;;;2.75;;
30149;SDS011;16962;48.646;9.026;2023-02-27T11:30:43;7.75;;;2.92;;
30149;SDS011;16962;48.646;9.026;2023-02-27T11:38:28;3.55;;;2.45;;
30149;SDS011;16962;48.646;9.026;2023-02-27T11:41:31;6.22;;;2.90;;
30149;SDS011;16962;48.646;9.026;2023-02-27T11:44:30;6.00;;;2.97;;
30149;SDS011;16962;48.646;9.026;2023-02-27T11:47:37;7.85;;;3.25;;
30149;SDS011;16962;48.646;9.026;2023-02-27T12:03:14;4.00;;;2.65;;
30149;SDS011;16962;48.646;9.026;2023-02-27T12:06:11;5.28;;;2.60;;
30149;SDS011;16962;48.646;9.026;2023-02-27T12:13:57;8.15;;;5.35;;
30149;SDS011;16962;48.646;9.026;2023-02-27T12:16:38;5.65;;;2.92;;
30149;SDS011;16962;48.646;9.026;2023-02-27T12:23:01;5.28;;;2.50;;
30149;SDS011;16962;48.646;9.026;2023-02-27T12:35:05;4.07;;;2.28;;
30149;SDS011;16962;48.646;9.026;2023-02-27T12:38:06;5.93;;;2.17;;
30149;SDS011;16962;48.646;9.026;2023-02-27T12:56:01;4.13;;;2.63;;
30149;SDS011;16962;48.646;9.026;2023-02-27T15:29:16;2.95;;;2.42;;
30149;SDS011;16962;48.646;9.026;2023-02-27T15:32:22;6.85;;;2.50;;
30149;SDS011;16962;48.646;9.026;2023-02-27T15:35:37;4.35;;;2.88;;
30149;SDS011;16962;48.646;9.026;2023-02-27T15:38:31;7.88;;;2.67;;
30149;SDS011;16962;48.646;9.026;2023-02-27T15:41:20;6.82;;;2.47;;
30149;SDS011;16962;48.646;9.026;2023-02-27T15:44:08;4.43;;;2.67;;
30149;SDS011;16962;48.646;9.026;2023-02-27T15:47:00;4.60;;;2.53;;
30149;SDS011;16962;48.646;9.026;2023-02-27T15:49:57;4.72;;;3.03;;
30149;SDS011;16962;48.646;9.026;2023-02-27T15:52:53;5.07;;;2.92;;
30149;SDS011;16962;48.646;9.026;2023-02-27T15:55:54;3.83;;;2.15;;
30149;SDS011;16962;48.646;9.026;2023-02-27T15:58:47;4.13;;;2.72;;
30149;SDS011;16962;48.646;9.026;2023-02-27T16:01:36;3.38;;;2.50;;
30149;SDS011;16962;48.646;9.026;2023-02-27T16:04:24;5.65;;;2.67;;
30149;SDS011;16962;48.646;9.026;2023-02-27T16:07:19;4.32;;;2.10;;
30149;SDS011;16962;48.646;9.026;2023-02-27T16:13:37;4.40;;;2.67;;
30149;SDS011;16962;48.646;9.026;2023-02-27T16:16:35;3.53;;;2.58;;
30149;SDS011;16962;48.646;9.026;2023-02-27T16:19:34;4.05;;;2.60;;
30149;SDS011;16962;48.646;9.026;2023-02-27T16:22:28;4.40;;;2.38;;
30149;SDS011;16962;48.646;9.026;2023-02-27T16:25:19;4.72;;;2.58;;
30149;SDS011;16962;48.646;9.026;2023-02-27T16:28:12;4.95;;;2.47;;
30149;SDS011;16962;48.646;9.026;2023-02-27T16:31:00;3.25;;;2.40;;
30149;SDS011;16962;48.646;9.026;2023-02-27T16:33:48;3.40;;;2.40;;
30149;SDS011;16962;48.646;9.026;2023-02-27T16:36:42;5.55;;;2.40;;
30149;SDS011;16962;48.646;9.026;2023-02-27T16:39:39;5.03;;;2.50;;
30149;SDS011;16962;48.646;9.026;2023-02-27T16:42:26;9.73;;;2.17;;
30149;SDS011;16962;48.646;9.026;2023-02-27T16:45:17;5.50;;;2.42;;
30149;SDS011;16962;48.646;9.026;2023-02-27T16:48:08;5.15;;;2.72;;
30149;SDS011;16962;48.646;9.026;2023-02-27T16:51:00;4.65;;;2.78;;
30149;SDS011;16962;48.646;9.026;2023-02-27T16:53:49;5.05;;;2.75;;
30149;SDS011;16962;48.646;9.026;2023-02-27T16:56:40;4.75;;;2.83;;
30149;SDS011;16962;48.646;9.026;2023-02-27T17:02:19;6.28;;;2.47;;
30149;SDS011;16962;48.646;9.026;2023-02-27T17:05:09;3.58;;;2.28;;
30149;SDS011;16962;48.646;9.026;2023-02-27T17:07:57;6.25;;;2.10;;
30149;SDS011;16962;48.646;9.026;2023-02-27T17:10:53;3.03;;;2.15;;
30149;SDS011;16962;48.646;9.026;2023-02-27T17:13:41;2.65;;;2.25;;
30149;SDS011;16962;48.646;9.026;2023-02-27T17:16:31;2.63;;;2.17;;
30149;SDS011;16962;48.646;9.026;2023-02-27T17:19:18;6.10;;;2.45;;
30149;SDS011;16962;48.646;9.026;2023-02-27T17:22:08;3.40;;;2.08;;
30149;SDS011;16962;48.646;9.026;2023-02-27T17:24:55;3.00;;;2.60;;
30149;SDS011;16962;48.646;9.026;2023-02-27T17:27:42;3.75;;;2.63;;
30149;SDS011;16962;48.646;9.026;2023-02-27T17:30:30;4.85;;;2.75;;
30149;SDS011;16962;48.646;9.026;2023-02-27T17:33:19;5.75;;;2.90;;
30149;SDS011;16962;48.646;9.026;2023-02-27T17:36:09;4.70;;;2.20;;
30149;SDS011;16962;48.646;9.026;2023-02-27T17:38:59;4.75;;;2.05;;
30149;SDS011;16962;48.646;9.026;2023-02-27T17:41:49;4.68;;;2.50;;
30149;SDS011;16962;48.646;9.026;2023-02-27T17:44:40;6.60;;;2.42;;
30149;SDS011;16962;48.646;9.026;2023-02-27T17:47:30;14.40;;;2.63;;
30149;SDS011;16962;48.646;9.026;2023-02-27T17:50:19;3.67;;;2.20;;
30149;SDS011;16962;48.646;9.026;2023-02-27T17:53:06;3.42;;;2.20;;
30149;SDS011;16962;48.646;9.026;2023-02-27T17:55:56;7.40;;;2.42;;
30149;SDS011;16962;48.646;9.026;2023-02-27T17:58:48;3.10;;;2.47;;
30149;SDS011;16962;48.646;9.026;2023-02-27T18:01:41;3.78;;;2.50;;
30149;SDS011;16962;48.646;9.026;2023-02-27T18:04:30;4.05;;;2.60;;
30149;SDS011;16962;48.646;9.026;2023-02-27T18:07:17;6.35;;;3.28;;
30149;SDS011;16962;48.646;9.026;2023-02-27T18:10:07;5.43;;;2.60;;
30149;SDS011;16962;48.646;9.026;2023-02-27T18:12:59;7.50;;;2.72;;
30149;SDS011;16962;48.646;9.026;2023-02-27T18:15:49;5.28;;;2.33;;
30149;SDS011;16962;48.646;9.026;2023-02-27T18:18:38;4.72;;;2.70;;
30149;SDS011;16962;48.646;9.026;2023-02-27T18:21:26;5.38;;;3.15;;
30149;SDS011;16962;48.646;9.026;2023-02-27T18:24:14;3.25;;;2.28;;
30149;SDS011;16962;48.646;9.026;2023-02-27T18:27:04;4.95;;;3.03;;
30149;SDS011;16962;48.646;9.026;2023-02-27T18:29:52;4.07;;;2.83;;
30149;SDS011;16962;48.646;9.026;2023-02-27T18:32:45;4.20;;;2.53;;
30149;SDS011;16962;48.646;9.026;2023-02-27T18:35:33;4.78;;;2.83;;
30149;SDS011;16962;48.646;9.026;2023-02-27T18:38:25;4.00;;;2.58;;
30149;SDS011;16962;48.646;9.026;2023-02-27T18:41:12;8.50;;;3.17;;
30149;SDS011;16962;48.646;9.026;2023-02-27T18:44:00;5.38;;;2.65;;
30149;SDS011;16962;48.646;9.026;2023-02-27T18:46:47;7.00;;;3.38;;
30149;SDS011;16962;48.646;9.026;2023-02-27T18:49:34;4.38;;;2.60;;
30149;SDS011;16962;48.646;9.026;2023-02-27T18:52:22;5.65;;;2.92;;
30149;SDS011;16962;48.646;9.026;2023-02-27T18:55:09;6.45;;;3.22;;
30149;SDS011;16962;48.646;9.026;2023-02-27T18:57:57;4.88;;;2.95;;
30149;SDS011;16962;48.646;9.026;2023-02-27T19:00:44;4.28;;;2.85;;
30149;SDS011;16962;48.646;9.026;2023-02-27T19:03:33;8.40;;;4.38;;
30149;SDS011;16962;48.646;9.026;2023-02-27T19:06:22;6.15;;;3.45;;
30149;SDS011;16962;48.646;9.026;2023-02-27T19:09:14;6.00;;;3.80;;
30149;SDS011;16962;48.646;9.026;2023-02-27T19:12:08;5.30;;;3.22;;
30149;SDS011;16962;48.646;9.026;2023-02-27T19:14:58;8.15;;;3.72;;
30149;SDS011;16962;48.646;9.026;2023-02-27T19:17:47;8.75;;;4.32;;
30149;SDS011;16962;48.646;9.026;2023-02-27T19:20:35;5.47;;;3.47;;
30149;SDS011;16962;48.646;9.026;2023-02-27T19:23:23;5.68;;;3.55;;
30149;SDS011;16962;48.646;9.026;2023-02-27T19:26:11;7.75;;;3.38;;
30149;SDS011;16962;48.646;9.026;2023-02-27T19:29:01;8.27;;;3.80;;
30149;SDS011;16962;48.646;9.026;2023-02-27T19:31:56;3.58;;;3.03;;
30149;SDS011;16962;48.646;9.026;2023-02-27T19:34:43;5.25;;;3.25;;
30149;SDS011;16962;48.646;9.026;2023-02-27T19:37:34;5.47;;;3.15;;
30149;SDS011;16962;48.646;9.026;2023-02-27T19:40:22;5.70;;;3.30;;
30149;SDS011;16962;48.646;9.026;2023-02-27T19:43:11;9.27;;;3.50;;
30149;SDS011;16962;48.646;9.026;2023-02-27T19:46:03;5.40;;;3.50;;
30149;SDS011;16962;48.646;9.026;2023-02-27T19:48:57;7.05;;;3.33;;
30149;SDS011;16962;48.646;9.026;2023-02-27T19:51:47;4.55;;;3.08;;
30149;SDS011;16962;48.646;9.026;2023-02-27T19:54:36;5.40;;;3.65;;
30149;SDS011;16962;48.646;9.026;2023-02-27T19:57:24;5.95;;;3.53;;
30149;SDS011;16962;48.646;9.026;2023-02-27T20:00:13;5.82;;;3.78;;
30149;SDS011;16962;48.646;9.026;2023-02-27T20:03:04;5.07;;;3.38;;
30149;SDS011;16962;48.646;9.026;2023-02-27T20:05:52;8.85;;;3.75;;
30149;SDS011;16962;48.646;9.026;2023-02-27T20:08:41;4.85;;;3.70;;
30149;SDS011;16962;48.646;9.026;2023-02-27T20:11:31;4.82;;;3.38;;
30149;SDS011;16962;48.646;9.026;2023-02-27T20:14:18;5.03;;;3.83;;
30149;SDS011;16962;48.646;9.026;2023-02-27T20:17:08;3.72;;;3.22;;
30149;SDS011;16962;48.646;9.026;2023-02-27T20:19:57;7.53;;;3.47;;
30149;SDS011;16962;48.646;9.026;2023-02-27T20:22:45;6.63;;;3.55;;
30149;SDS011;16962;48.646;9.026;2023-02-27T20:25:33;6.50;;;3.30;;
30149;SDS011;16962;48.646;9.026;2023-02-27T20:28:30;5.20;;;3.85;;
30149;SDS011;16962;48.646;9.026;2023-02-27T20:31:19;6.05;;;3.95;;
30149;SDS011;16962;48.646;9.026;2023-02-27T20:34:11;5.82;;;3.92;;
30149;SDS011;16962;48.646;9.026;2023-02-27T20:37:08;7.45;;;3.35;;
30149;SDS011;16962;48.646;9.026;2023-02-27T20:39:55;10.57;;;5.00;;
30149;SDS011;16962;48.646;9.026;2023-02-27T20:42:46;5.43;;;3.85;;
30149;SDS011;16962;48.646;9.026;2023-02-27T20:45:37;11.35;;;4.25;;
30149;SDS011;16962;48.646;9.026;2023-02-27T20:48:32;6.40;;;3.83;;
30149;SDS011;16962;48.646;9.026;2023-02-27T20:51:34;11.55;;;4.80;;
30149;SDS011;16962;48.646;9.026;2023-02-27T20:54:26;9.48;;;5.10;;
30149;SDS011;16962;48.646;9.026;2023-02-27T20:57:14;9.07;;;4.55;;
30149;SDS011;16962;48.646;9.026;2023-02-27T21:00:04;8.98;;;4.32;;
30149;SDS011;16962;48.646;9.026;2023-02-27T21:02:57;9.40;;;4.20;;
30149;SDS011;16962;48.646;9.026;2023-02-27T21:05:47;6.72;;;4.28;;
30149;SDS011;16962;48.646;9.026;2023-02-27T21:08:39;16.38;;;5.05;;
30149;SDS011;16962;48.646;9.026;2023-02-27T21:11:30;7.63;;;4.43;;
30149;SDS011;16962;48.646;9.026;2023-02-27T21:14:18;12.57;;;5.03;;
30149;SDS011;16962;48.646;9.026;2023-02-27T21:17:07;8.95;;;4.38;;
30149;SDS011;16962;48.646;9.026;2023-02-27T21:19:56;7.88;;;3.72;;
30149;SDS011;16962;48.646;9.026;2023-02-27T21:22:44;10.88;;;4.47;;
30149;SDS011;16962;48.646;9.026;2023-02-27T21:25:31;10.07;;;4.55;;
30149;SDS011;16962;48.646;9.026;2023-02-27T21:28:19;7.80;;;4.35;;
30149;SDS011;16962;48.646;9.026;2023-02-27T21:31:08;11.35;;;5.18;;
30149;SDS011;16962;48.646;9.026;2023-02-27T21:33:59;8.85;;;5.07;;
30149;SDS011;16962;48.646;9.026;2023-02-27T21:36:49;10.23;;;4.70;;
30149;SDS011;16962;48.646;9.026;2023-02-27T21:39:38;11.30;;;5.05;;
30149;SDS011;16962;48.646;9.026;2023-02-27T21:42:26;10.48;;;4.47;;
30149;SDS011;16962;48.646;9.026;2023-02-27T21:45:18;5.97;;;3.80;;
30149;SDS011;16962;48.646;9.026;2023-02-27T21:48:09;5.60;;;4.13;;
30149;SDS011;16962;48.646;9.026;2023-02-27T21:50:59;7.65;;;4.18;;
30149;SDS011;16962;48.646;9.026;2023-02-27T21:53:47;13.70;;;4.47;;
30149;SDS011;16962;48.646;9.026;2023-02-27T21:56:41;5.97;;;3.88;;
30149;SDS011;16962;48.646;9.026;2023-02-27T21:59:34;6.93;;;4.03;;
30149;SDS011;16962;48.646;9.026;2023-02-27T22:02:22;8.85;;;4.47;;
30149;SDS011;16962;48.646;9.026;2023-02-27T22:05:12;9.43;;;4.25;;
30149;SDS011;16962;48.646;9.026;2023-02-27T22:10:50;10.95;;;4.30;;
30149;SDS011;16962;48.646;9.026;2023-02-27T22:13:44;6.70;;;4.03;;
30149;SDS011;16962;48.646;9.026;2023-02-27T22:16:34;6.22;;;4.43;;
30149;SDS011;16962;48.646;9.026;2023-02-27T22:19:22;10.52;;;4.60;;
30149;SDS011;16962;48.646;9.026;2023-02-27T22:22:11;6.35;;;3.60;;
30149;SDS011;16962;48.646;9.026;2023-02-27T22:25:01;6.55;;;4.47;;
30149;SDS011;16962;48.646;9.026;2023-02-27T22:27:49;9.63;;;4.43;;
30149;SDS011;16962;48.646;9.026;2023-02-27T22:30:38;6.03;;;4.15;;
30149;SDS011;16962;48.646;9.026;2023-02-27T22:33:25;7.10;;;4.20;;
30149;SDS011;16962;48.646;9.026;2023-02-27T22:36:20;7.32;;;4.05;;
30149;SDS011;16962;48.646;9.026;2023-02-27T22:39:12;9.77;;;4.38;;
30149;SDS011;16962;48.646;9.026;2023-02-27T22:41:59;9.70;;;4.10;;
30149;SDS011;16962;48.646;9.026;2023-02-27T22:44:47;9.20;;;4.60;;
30149;SDS011;16962;48.646;9.026;2023-02-27T22:47:34;10.52;;;4.65;;
30149;SDS011;16962;48.646;9.026;2023-02-27T22:50:21;7.30;;;4.28;;
30149;SDS011;16962;48.646;9.026;2023-02-27T22:53:11;10.15;;;4.43;;
30149;SDS011;16962;48.646;9.026;2023-02-27T22:56:00;5.93;;;3.65;;
30149;SDS011;16962;48.646;9.026;2023-02-27T22:58:47;9.07;;;4.20;;
30149;SDS011;16962;48.646;9.026;2023-02-27T23:01:35;8.25;;;4.30;;
30149;SDS011;16962;48.646;9.026;2023-02-27T23:04:23;7.30;;;3.63;;
30149;SDS011;16962;48.646;9.026;2023-02-27T23:07:11;8.27;;;4.18;;
30149;SDS011;16962;48.646;9.026;2023-02-27T23:10:03;9.65;;;4.95;;
30149;SDS011;16962;48.646;9.026;2023-02-27T23:12:55;9.30;;;4.03;;
30149;SDS011;16962;48.646;9.026;2023-02-27T23:15:44;6.72;;;3.55;;
30149;SDS011;16962;48.646;9.026;2023-02-27T23:18:34;5.07;;;4.03;;
30149;SDS011;16962;48.646;9.026;2023-02-27T23:21:23;8.40;;;3.92;;
30149;SDS011;16962;48.646;9.026;2023-02-27T23:24:20;9.82;;;3.85;;
30149;SDS011;16962;48.646;9.026;2023-02-27T23:27:07;6.65;;;3.60;;
30149;SDS011;16962;48.646;9.026;2023-02-27T23:30:11;5.13;;;3.55;;
30149;SDS011;16962;48.646;9.026;2023-02-27T23:32:59;5.22;;;3.63;;
30149;SDS011;16962;48.646;9.026;2023-02-27T23:35:47;5.72;;;3.40;;
30149;SDS011;16962;48.646;9.026;2023-02-27T23:38:34;6.30;;;3.70;;
30149;SDS011;16962;48.646;9.026;2023-02-27T23:41:24;5.85;;;3.75;;
30149;SDS011;16962;48.646;9.026;2023-02-27T23:44:12;6.35;;;3.70;;
30149;SDS011;16962;48.646;9.026;2023-02-27T23:47:18;8.30;;;3.95;;
30149;SDS011;16962;48.646;9.026;2023-02-27T23:50:29;5.53;;;3.30;;
30149;SDS011;16962;48.646;9.026;2023-02-27T23:53:29;8.25;;;3.78;;
30149;SDS011;16962;48.646;9.026;2023-02-27T23:56:19;6.43;;;3.65;;
30149;SDS011;16962;48.646;9.026;2023-02-27T23:59:08;5.05;;;3.45;;
